sensor_id;sensor_type;location;lat;lon;timestamp;P1;durP1;ratioP1;P2;durP2;ratioP2
34920;SDS011;21128;50.016;20.002;2024-01-25T00:00:20;13.50;;;3.70;;
34920;SDS011;21128;50.016;20.002;2024-01-25T00:03:07;9.30;;;3.80;;
34920;SDS011;21128;50.016;20.002;2024-01-25T00:05:34;11.40;;;3.60;;
34920;SDS011;21128;50.016;20.002;2024-01-25T00:08:01;14.00;;;3.30;;
34920;SDS011;21128;50.016;20.002;2024-01-25T00:10:27;11.80;;;3.40;;
34920;SDS011;21128;50.016;20.002;2024-01-25T00:12:54;14.50;;;3.70;;
34920;SDS011;21128;50.016;20.002;2024-01-25T00:15:21;12.50;;;3.50;;
34920;SDS011;21128;50.016;20.002;2024-01-25T00:17:47;16.60;;;3.40;;
34920;SDS011;21128;50.016;20.002;2024-01-25T00:20:14;13.10;;;3.10;;
34920;SDS011;21128;50.016;20.002;2024-01-25T00:22:41;14.10;;;3.10;;
34920;SDS011;21128;50.016;20.002;2024-01-25T00:25:08;11.00;;;3.30;;
34920;SDS011;21128;50.016;20.002;2024-01-25T00:27:34;11.80;;;3.60;;
34920;SDS011;21128;50.016;20.002;2024-01-25T00:30:01;8.50;;;2.80;;
34920;SDS011;21128;50.016;20.002;2024-01-25T00:32:28;10.50;;;3.00;;
34920;SDS011;21128;50.016;20.002;2024-01-25T00:34:55;8.90;;;2.90;;
34920;SDS011;21128;50.016;20.002;2024-01-25T00:37:22;12.00;;;3.80;;
34920;SDS011;21128;50.016;20.002;2024-01-25T00:39:49;11.00;;;2.70;;
34920;SDS011;21128;50.016;20.002;2024-01-25T00:42:17;9.10;;;2.70;;
34920;SDS011;21128;50.016;20.002;2024-01-25T00:44:48;9.80;;;3.40;;
34920;SDS011;21128;50.016;20.002;2024-01-25T00:47:15;10.50;;;3.20;;
34920;SDS011;21128;50.016;20.002;2024-01-25T00:49:41;6.40;;;2.60;;
34920;SDS011;21128;50.016;20.002;2024-01-25T00:52:09;8.70;;;2.90;;
34920;SDS011;21128;50.016;20.002;2024-01-25T00:54:36;7.20;;;2.50;;
34920;SDS011;21128;50.016;20.002;2024-01-25T00:57:03;11.60;;;3.30;;
34920;SDS011;21128;50.016;20.002;2024-01-25T00:59:30;11.90;;;2.70;;
34920;SDS011;21128;50.016;20.002;2024-01-25T01:01:58;10.30;;;2.60;;
34920;SDS011;21128;50.016;20.002;2024-01-25T01:04:25;13.80;;;3.70;;
34920;SDS011;21128;50.016;20.002;2024-01-25T01:06:53;10.50;;;2.80;;
34920;SDS011;21128;50.016;20.002;2024-01-25T01:09:19;12.30;;;2.90;;
34920;SDS011;21128;50.016;20.002;2024-01-25T01:11:46;12.00;;;3.30;;
34920;SDS011;21128;50.016;20.002;2024-01-25T01:17:50;9.30;;;3.10;;
34920;SDS011;21128;50.016;20.002;2024-01-25T01:20:16;6.50;;;2.40;;
34920;SDS011;21128;50.016;20.002;2024-01-25T01:22:43;11.30;;;3.00;;
34920;SDS011;21128;50.016;20.002;2024-01-25T01:25:10;13.50;;;3.40;;
34920;SDS011;21128;50.016;20.002;2024-01-25T01:27:37;7.80;;;2.60;;
34920;SDS011;21128;50.016;20.002;2024-01-25T01:30:03;12.70;;;3.20;;
34920;SDS011;21128;50.016;20.002;2024-01-25T01:32:30;13.40;;;4.00;;
34920;SDS011;21128;50.016;20.002;2024-01-25T01:34:57;10.00;;;3.00;;
34920;SDS011;21128;50.016;20.002;2024-01-25T01:37:24;7.50;;;2.60;;
34920;SDS011;21128;50.016;20.002;2024-01-25T01:39:50;9.00;;;2.90;;
34920;SDS011;21128;50.016;20.002;2024-01-25T01:42:18;10.10;;;1.70;;
34920;SDS011;21128;50.016;20.002;2024-01-25T01:44:45;15.20;;;2.80;;
34920;SDS011;21128;50.016;20.002;2024-01-25T01:47:12;6.60;;;2.10;;
34920;SDS011;21128;50.016;20.002;2024-01-25T01:49:39;9.40;;;2.50;;
34920;SDS011;21128;50.016;20.002;2024-01-25T01:52:06;10.60;;;3.10;;
34920;SDS011;21128;50.016;20.002;2024-01-25T01:54:34;12.90;;;2.50;;
34920;SDS011;21128;50.016;20.002;2024-01-25T01:57:01;7.20;;;2.20;;
34920;SDS011;21128;50.016;20.002;2024-01-25T01:59:28;9.00;;;2.30;;
34920;SDS011;21128;50.016;20.002;2024-01-25T02:01:57;13.40;;;3.00;;
34920;SDS011;21128;50.016;20.002;2024-01-25T02:04:23;11.50;;;2.80;;
34920;SDS011;21128;50.016;20.002;2024-01-25T02:06:50;9.90;;;3.10;;
34920;SDS011;21128;50.016;20.002;2024-01-25T02:09:16;11.40;;;3.00;;
34920;SDS011;21128;50.016;20.002;2024-01-25T02:11:43;12.90;;;2.50;;
34920;SDS011;21128;50.016;20.002;2024-01-25T02:14:10;11.20;;;3.10;;
34920;SDS011;21128;50.016;20.002;2024-01-25T02:16:38;10.60;;;2.70;;
34920;SDS011;21128;50.016;20.002;2024-01-25T02:19:05;8.20;;;2.50;;
34920;SDS011;21128;50.016;20.002;2024-01-25T02:21:31;7.70;;;2.40;;
34920;SDS011;21128;50.016;20.002;2024-01-25T02:23:58;10.90;;;2.60;;
34920;SDS011;21128;50.016;20.002;2024-01-25T02:26:25;9.60;;;2.30;;
34920;SDS011;21128;50.016;20.002;2024-01-25T02:28:51;11.90;;;2.80;;
34920;SDS011;21128;50.016;20.002;2024-01-25T02:31:18;12.40;;;2.60;;
34920;SDS011;21128;50.016;20.002;2024-01-25T02:33:45;15.40;;;3.60;;
34920;SDS011;21128;50.016;20.002;2024-01-25T02:36:11;9.50;;;2.50;;
34920;SDS011;21128;50.016;20.002;2024-01-25T02:38:38;12.10;;;2.10;;
34920;SDS011;21128;50.016;20.002;2024-01-25T02:41:05;7.60;;;2.40;;
34920;SDS011;21128;50.016;20.002;2024-01-25T02:43:31;15.60;;;3.00;;
34920;SDS011;21128;50.016;20.002;2024-01-25T02:45:58;15.70;;;3.00;;
34920;SDS011;21128;50.016;20.002;2024-01-25T02:48:25;10.10;;;2.40;;
34920;SDS011;21128;50.016;20.002;2024-01-25T02:50:52;12.40;;;2.60;;
34920;SDS011;21128;50.016;20.002;2024-01-25T02:53:18;7.50;;;2.10;;
34920;SDS011;21128;50.016;20.002;2024-01-25T02:55:45;11.40;;;2.90;;
34920;SDS011;21128;50.016;20.002;2024-01-25T02:58:12;12.80;;;2.60;;
34920;SDS011;21128;50.016;20.002;2024-01-25T03:00:38;7.40;;;2.50;;
34920;SDS011;21128;50.016;20.002;2024-01-25T03:03:05;11.00;;;2.00;;
34920;SDS011;21128;50.016;20.002;2024-01-25T03:05:32;8.10;;;1.90;;
34920;SDS011;21128;50.016;20.002;2024-01-25T03:07:59;6.90;;;2.20;;
34920;SDS011;21128;50.016;20.002;2024-01-25T03:10:26;9.40;;;2.10;;
34920;SDS011;21128;50.016;20.002;2024-01-25T03:12:53;9.40;;;2.10;;
34920;SDS011;21128;50.016;20.002;2024-01-25T03:15:19;10.20;;;2.20;;
34920;SDS011;21128;50.016;20.002;2024-01-25T03:17:46;13.00;;;2.60;;
34920;SDS011;21128;50.016;20.002;2024-01-25T03:20:13;7.30;;;2.20;;
34920;SDS011;21128;50.016;20.002;2024-01-25T03:22:40;8.60;;;2.10;;
34920;SDS011;21128;50.016;20.002;2024-01-25T03:25:06;13.40;;;2.70;;
34920;SDS011;21128;50.016;20.002;2024-01-25T03:27:35;13.00;;;2.70;;
34920;SDS011;21128;50.016;20.002;2024-01-25T03:30:02;9.70;;;2.60;;
34920;SDS011;21128;50.016;20.002;2024-01-25T03:32:29;9.60;;;2.40;;
34920;SDS011;21128;50.016;20.002;2024-01-25T03:34:55;7.90;;;2.40;;
34920;SDS011;21128;50.016;20.002;2024-01-25T03:37:22;10.40;;;2.60;;
34920;SDS011;21128;50.016;20.002;2024-01-25T03:39:49;12.60;;;2.70;;
34920;SDS011;21128;50.016;20.002;2024-01-25T03:42:15;11.90;;;2.80;;
34920;SDS011;21128;50.016;20.002;2024-01-25T03:44:42;6.40;;;2.30;;
34920;SDS011;21128;50.016;20.002;2024-01-25T03:47:11;11.30;;;2.20;;
34920;SDS011;21128;50.016;20.002;2024-01-25T03:49:37;7.50;;;2.40;;
34920;SDS011;21128;50.016;20.002;2024-01-25T03:52:04;9.80;;;2.60;;
34920;SDS011;21128;50.016;20.002;2024-01-25T03:54:32;13.50;;;2.80;;
34920;SDS011;21128;50.016;20.002;2024-01-25T03:56:59;10.00;;;2.50;;
34920;SDS011;21128;50.016;20.002;2024-01-25T03:59:26;12.20;;;2.60;;
34920;SDS011;21128;50.016;20.002;2024-01-25T04:01:53;11.30;;;2.30;;
34920;SDS011;21128;50.016;20.002;2024-01-25T04:04:19;13.80;;;2.80;;
34920;SDS011;21128;50.016;20.002;2024-01-25T04:06:46;12.20;;;2.70;;
34920;SDS011;21128;50.016;20.002;2024-01-25T04:09:13;11.80;;;3.10;;
34920;SDS011;21128;50.016;20.002;2024-01-25T04:11:41;16.60;;;3.20;;
34920;SDS011;21128;50.016;20.002;2024-01-25T04:14:08;19.60;;;3.70;;
34920;SDS011;21128;50.016;20.002;2024-01-25T04:16:35;16.50;;;3.50;;
34920;SDS011;21128;50.016;20.002;2024-01-25T04:19:02;17.60;;;3.20;;
34920;SDS011;21128;50.016;20.002;2024-01-25T04:21:28;9.70;;;2.40;;
34920;SDS011;21128;50.016;20.002;2024-01-25T04:23:55;14.50;;;2.40;;
34920;SDS011;21128;50.016;20.002;2024-01-25T04:26:22;16.20;;;3.50;;
34920;SDS011;21128;50.016;20.002;2024-01-25T04:28:50;16.60;;;3.20;;
34920;SDS011;21128;50.016;20.002;2024-01-25T04:31:16;14.90;;;3.10;;
34920;SDS011;21128;50.016;20.002;2024-01-25T04:33:43;12.10;;;3.50;;
34920;SDS011;21128;50.016;20.002;2024-01-25T04:36:10;10.60;;;3.30;;
34920;SDS011;21128;50.016;20.002;2024-01-25T04:38:37;13.00;;;2.70;;
34920;SDS011;21128;50.016;20.002;2024-01-25T04:41:03;9.60;;;2.20;;
34920;SDS011;21128;50.016;20.002;2024-01-25T04:43:34;16.00;;;3.40;;
34920;SDS011;21128;50.016;20.002;2024-01-25T04:46:03;16.80;;;3.20;;
34920;SDS011;21128;50.016;20.002;2024-01-25T04:48:30;9.20;;;2.30;;
34920;SDS011;21128;50.016;20.002;2024-01-25T04:50:57;11.00;;;2.70;;
34920;SDS011;21128;50.016;20.002;2024-01-25T04:53:26;14.00;;;3.00;;
34920;SDS011;21128;50.016;20.002;2024-01-25T04:55:54;11.50;;;2.40;;
34920;SDS011;21128;50.016;20.002;2024-01-25T04:58:21;14.80;;;2.40;;
34920;SDS011;21128;50.016;20.002;2024-01-25T05:00:48;11.60;;;2.80;;
34920;SDS011;21128;50.016;20.002;2024-01-25T05:03:16;8.90;;;2.20;;
34920;SDS011;21128;50.016;20.002;2024-01-25T05:05:44;6.70;;;2.10;;
34920;SDS011;21128;50.016;20.002;2024-01-25T05:08:10;9.00;;;2.50;;
34920;SDS011;21128;50.016;20.002;2024-01-25T05:10:37;7.50;;;2.40;;
34920;SDS011;21128;50.016;20.002;2024-01-25T05:13:04;8.10;;;2.30;;
34920;SDS011;21128;50.016;20.002;2024-01-25T05:15:31;9.40;;;2.80;;
34920;SDS011;21128;50.016;20.002;2024-01-25T05:17:57;8.00;;;2.70;;
34920;SDS011;21128;50.016;20.002;2024-01-25T05:20:24;9.40;;;2.20;;
34920;SDS011;21128;50.016;20.002;2024-01-25T05:22:58;11.70;;;2.30;;
34920;SDS011;21128;50.016;20.002;2024-01-25T05:25:26;9.50;;;2.60;;
34920;SDS011;21128;50.016;20.002;2024-01-25T05:27:54;11.10;;;2.00;;
34920;SDS011;21128;50.016;20.002;2024-01-25T05:30:22;12.30;;;2.50;;
34920;SDS011;21128;50.016;20.002;2024-01-25T05:32:49;11.00;;;2.20;;
34920;SDS011;21128;50.016;20.002;2024-01-25T05:35:16;8.70;;;2.10;;
34920;SDS011;21128;50.016;20.002;2024-01-25T05:37:43;8.30;;;2.70;;
34920;SDS011;21128;50.016;20.002;2024-01-25T05:40:10;10.10;;;2.70;;
34920;SDS011;21128;50.016;20.002;2024-01-25T05:42:38;10.60;;;2.50;;
34920;SDS011;21128;50.016;20.002;2024-01-25T05:45:05;12.30;;;2.40;;
34920;SDS011;21128;50.016;20.002;2024-01-25T05:47:33;8.40;;;2.70;;
34920;SDS011;21128;50.016;20.002;2024-01-25T05:50:01;8.20;;;2.00;;
34920;SDS011;21128;50.016;20.002;2024-01-25T05:52:29;10.30;;;2.40;;
34920;SDS011;21128;50.016;20.002;2024-01-25T05:54:56;8.20;;;2.50;;
34920;SDS011;21128;50.016;20.002;2024-01-25T05:57:22;11.30;;;2.70;;
34920;SDS011;21128;50.016;20.002;2024-01-25T05:59:49;7.40;;;2.40;;
34920;SDS011;21128;50.016;20.002;2024-01-25T06:02:16;10.30;;;3.00;;
34920;SDS011;21128;50.016;20.002;2024-01-25T06:04:43;12.50;;;2.40;;
34920;SDS011;21128;50.016;20.002;2024-01-25T06:07:10;7.60;;;2.90;;
34920;SDS011;21128;50.016;20.002;2024-01-25T06:09:37;12.00;;;2.50;;
34920;SDS011;21128;50.016;20.002;2024-01-25T06:12:04;13.30;;;2.80;;
34920;SDS011;21128;50.016;20.002;2024-01-25T06:14:31;10.00;;;2.90;;
34920;SDS011;21128;50.016;20.002;2024-01-25T06:16:57;7.70;;;2.80;;
34920;SDS011;21128;50.016;20.002;2024-01-25T06:19:24;13.70;;;3.10;;
34920;SDS011;21128;50.016;20.002;2024-01-25T06:21:51;12.00;;;2.90;;
34920;SDS011;21128;50.016;20.002;2024-01-25T06:24:18;9.90;;;2.60;;
34920;SDS011;21128;50.016;20.002;2024-01-25T06:26:44;13.80;;;3.00;;
34920;SDS011;21128;50.016;20.002;2024-01-25T06:29:11;7.90;;;2.70;;
34920;SDS011;21128;50.016;20.002;2024-01-25T06:31:44;8.70;;;3.00;;
34920;SDS011;21128;50.016;20.002;2024-01-25T06:34:11;12.50;;;3.20;;
34920;SDS011;21128;50.016;20.002;2024-01-25T06:36:38;8.00;;;2.50;;
34920;SDS011;21128;50.016;20.002;2024-01-25T06:39:05;10.90;;;2.70;;
34920;SDS011;21128;50.016;20.002;2024-01-25T06:41:33;11.20;;;2.70;;
34920;SDS011;21128;50.016;20.002;2024-01-25T06:44:00;11.90;;;3.00;;
34920;SDS011;21128;50.016;20.002;2024-01-25T06:46:26;10.20;;;2.70;;
34920;SDS011;21128;50.016;20.002;2024-01-25T06:48:53;11.90;;;2.80;;
34920;SDS011;21128;50.016;20.002;2024-01-25T06:51:20;13.30;;;2.70;;
34920;SDS011;21128;50.016;20.002;2024-01-25T06:53:47;17.90;;;3.30;;
34920;SDS011;21128;50.016;20.002;2024-01-25T06:56:14;13.40;;;3.00;;
34920;SDS011;21128;50.016;20.002;2024-01-25T06:58:40;12.30;;;3.00;;
34920;SDS011;21128;50.016;20.002;2024-01-25T07:01:07;9.40;;;2.80;;
34920;SDS011;21128;50.016;20.002;2024-01-25T07:03:34;17.00;;;2.80;;
34920;SDS011;21128;50.016;20.002;2024-01-25T07:06:00;9.30;;;2.90;;
34920;SDS011;21128;50.016;20.002;2024-01-25T07:08:27;14.70;;;3.10;;
34920;SDS011;21128;50.016;20.002;2024-01-25T07:10:54;14.50;;;4.00;;
34920;SDS011;21128;50.016;20.002;2024-01-25T07:13:22;13.70;;;2.90;;
34920;SDS011;21128;50.016;20.002;2024-01-25T07:15:48;12.90;;;2.90;;
34920;SDS011;21128;50.016;20.002;2024-01-25T07:18:15;9.80;;;2.70;;
34920;SDS011;21128;50.016;20.002;2024-01-25T07:20:42;13.20;;;3.00;;
34920;SDS011;21128;50.016;20.002;2024-01-25T07:23:09;14.60;;;3.60;;
34920;SDS011;21128;50.016;20.002;2024-01-25T07:25:35;12.00;;;3.40;;
34920;SDS011;21128;50.016;20.002;2024-01-25T07:28:02;10.40;;;3.20;;
34920;SDS011;21128;50.016;20.002;2024-01-25T07:30:29;13.30;;;3.50;;
34920;SDS011;21128;50.016;20.002;2024-01-25T07:32:56;11.70;;;3.70;;
34920;SDS011;21128;50.016;20.002;2024-01-25T07:35:23;16.70;;;4.00;;
34920;SDS011;21128;50.016;20.002;2024-01-25T07:37:50;9.90;;;3.70;;
34920;SDS011;21128;50.016;20.002;2024-01-25T07:40:17;16.20;;;4.30;;
34920;SDS011;21128;50.016;20.002;2024-01-25T07:42:43;13.50;;;3.70;;
34920;SDS011;21128;50.016;20.002;2024-01-25T07:45:10;13.40;;;3.80;;
34920;SDS011;21128;50.016;20.002;2024-01-25T07:47:42;16.70;;;4.10;;
34920;SDS011;21128;50.016;20.002;2024-01-25T07:50:10;9.40;;;3.40;;
34920;SDS011;21128;50.016;20.002;2024-01-25T07:52:37;11.30;;;3.30;;
34920;SDS011;21128;50.016;20.002;2024-01-25T07:55:04;15.50;;;3.30;;
34920;SDS011;21128;50.016;20.002;2024-01-25T07:57:31;14.90;;;3.80;;
34920;SDS011;21128;50.016;20.002;2024-01-25T07:59:58;15.50;;;4.20;;
34920;SDS011;21128;50.016;20.002;2024-01-25T08:02:24;15.80;;;3.40;;
34920;SDS011;21128;50.016;20.002;2024-01-25T08:04:51;13.00;;;3.40;;
34920;SDS011;21128;50.016;20.002;2024-01-25T08:07:18;23.20;;;4.20;;
34920;SDS011;21128;50.016;20.002;2024-01-25T08:09:44;11.00;;;3.30;;
34920;SDS011;21128;50.016;20.002;2024-01-25T08:12:11;17.60;;;4.00;;
34920;SDS011;21128;50.016;20.002;2024-01-25T08:14:38;9.40;;;3.40;;
34920;SDS011;21128;50.016;20.002;2024-01-25T08:17:04;16.40;;;4.00;;
34920;SDS011;21128;50.016;20.002;2024-01-25T08:19:32;14.20;;;3.90;;
34920;SDS011;21128;50.016;20.002;2024-01-25T08:21:59;9.90;;;3.30;;
34920;SDS011;21128;50.016;20.002;2024-01-25T08:24:25;10.70;;;4.00;;
34920;SDS011;21128;50.016;20.002;2024-01-25T08:26:52;11.90;;;3.20;;
34920;SDS011;21128;50.016;20.002;2024-01-25T08:29:19;9.80;;;3.30;;
34920;SDS011;21128;50.016;20.002;2024-01-25T08:31:45;14.50;;;2.80;;
34920;SDS011;21128;50.016;20.002;2024-01-25T08:34:12;8.30;;;3.30;;
34920;SDS011;21128;50.016;20.002;2024-01-25T08:36:39;13.60;;;3.30;;
34920;SDS011;21128;50.016;20.002;2024-01-25T08:39:06;11.70;;;3.80;;
34920;SDS011;21128;50.016;20.002;2024-01-25T08:41:35;12.20;;;3.10;;
34920;SDS011;21128;50.016;20.002;2024-01-25T08:44:02;10.50;;;3.40;;
34920;SDS011;21128;50.016;20.002;2024-01-25T08:46:29;10.80;;;3.80;;
34920;SDS011;21128;50.016;20.002;2024-01-25T08:48:56;17.70;;;3.90;;
34920;SDS011;21128;50.016;20.002;2024-01-25T08:51:22;18.80;;;3.70;;
34920;SDS011;21128;50.016;20.002;2024-01-25T08:53:49;17.10;;;4.30;;
34920;SDS011;21128;50.016;20.002;2024-01-25T08:56:17;14.20;;;4.50;;
34920;SDS011;21128;50.016;20.002;2024-01-25T08:58:45;17.30;;;3.80;;
34920;SDS011;21128;50.016;20.002;2024-01-25T09:01:14;13.00;;;4.00;;
34920;SDS011;21128;50.016;20.002;2024-01-25T09:03:40;15.70;;;4.20;;
34920;SDS011;21128;50.016;20.002;2024-01-25T09:06:08;12.80;;;3.40;;
34920;SDS011;21128;50.016;20.002;2024-01-25T09:08:35;15.40;;;4.50;;
34920;SDS011;21128;50.016;20.002;2024-01-25T09:11:02;15.10;;;3.50;;
34920;SDS011;21128;50.016;20.002;2024-01-25T09:13:29;14.90;;;3.90;;
34920;SDS011;21128;50.016;20.002;2024-01-25T09:15:56;18.80;;;4.70;;
34920;SDS011;21128;50.016;20.002;2024-01-25T09:18:23;14.60;;;4.70;;
34920;SDS011;21128;50.016;20.002;2024-01-25T09:20:50;14.10;;;3.00;;
34920;SDS011;21128;50.016;20.002;2024-01-25T09:23:17;15.10;;;3.50;;
34920;SDS011;21128;50.016;20.002;2024-01-25T09:25:44;10.30;;;3.10;;
34920;SDS011;21128;50.016;20.002;2024-01-25T09:28:12;12.20;;;3.30;;
34920;SDS011;21128;50.016;20.002;2024-01-25T09:30:39;15.70;;;4.00;;
34920;SDS011;21128;50.016;20.002;2024-01-25T09:33:06;16.80;;;4.10;;
34920;SDS011;21128;50.016;20.002;2024-01-25T09:35:33;15.10;;;4.10;;
34920;SDS011;21128;50.016;20.002;2024-01-25T09:38:00;14.10;;;3.20;;
34920;SDS011;21128;50.016;20.002;2024-01-25T09:40:27;9.10;;;3.00;;
34920;SDS011;21128;50.016;20.002;2024-01-25T09:42:54;13.60;;;4.10;;
34920;SDS011;21128;50.016;20.002;2024-01-25T09:45:21;14.70;;;3.70;;
34920;SDS011;21128;50.016;20.002;2024-01-25T09:47:50;10.90;;;3.30;;
34920;SDS011;21128;50.016;20.002;2024-01-25T09:50:17;23.20;;;4.60;;
34920;SDS011;21128;50.016;20.002;2024-01-25T09:52:44;16.80;;;4.10;;
34920;SDS011;21128;50.016;20.002;2024-01-25T09:55:12;21.00;;;4.90;;
34920;SDS011;21128;50.016;20.002;2024-01-25T09:57:45;22.70;;;4.40;;
34920;SDS011;21128;50.016;20.002;2024-01-25T10:00:16;15.70;;;4.00;;
34920;SDS011;21128;50.016;20.002;2024-01-25T10:02:43;13.10;;;4.10;;
34920;SDS011;21128;50.016;20.002;2024-01-25T10:05:10;17.30;;;4.00;;
34920;SDS011;21128;50.016;20.002;2024-01-25T10:07:38;16.40;;;4.60;;
34920;SDS011;21128;50.016;20.002;2024-01-25T10:10:09;14.10;;;3.70;;
34920;SDS011;21128;50.016;20.002;2024-01-25T10:12:37;13.00;;;4.00;;
34920;SDS011;21128;50.016;20.002;2024-01-25T10:15:06;12.60;;;4.10;;
34920;SDS011;21128;50.016;20.002;2024-01-25T10:17:34;14.40;;;4.70;;
34920;SDS011;21128;50.016;20.002;2024-01-25T10:20:04;16.40;;;3.80;;
34920;SDS011;21128;50.016;20.002;2024-01-25T10:22:33;18.00;;;4.00;;
34920;SDS011;21128;50.016;20.002;2024-01-25T10:25:00;11.80;;;3.50;;
34920;SDS011;21128;50.016;20.002;2024-01-25T10:27:28;15.10;;;3.70;;
34920;SDS011;21128;50.016;20.002;2024-01-25T10:29:55;11.60;;;3.40;;
34920;SDS011;21128;50.016;20.002;2024-01-25T10:32:22;15.80;;;3.70;;
34920;SDS011;21128;50.016;20.002;2024-01-25T10:34:49;22.80;;;4.30;;
34920;SDS011;21128;50.016;20.002;2024-01-25T10:37:17;9.40;;;3.40;;
34920;SDS011;21128;50.016;20.002;2024-01-25T10:39:46;20.20;;;4.50;;
34920;SDS011;21128;50.016;20.002;2024-01-25T10:42:14;14.20;;;4.10;;
34920;SDS011;21128;50.016;20.002;2024-01-25T10:44:40;16.90;;;3.40;;
34920;SDS011;21128;50.016;20.002;2024-01-25T10:47:09;17.70;;;4.20;;
34920;SDS011;21128;50.016;20.002;2024-01-25T10:49:36;19.30;;;5.10;;
34920;SDS011;21128;50.016;20.002;2024-01-25T10:52:04;14.70;;;4.00;;
34920;SDS011;21128;50.016;20.002;2024-01-25T10:54:32;22.10;;;4.40;;
34920;SDS011;21128;50.016;20.002;2024-01-25T10:57:00;16.00;;;3.60;;
34920;SDS011;21128;50.016;20.002;2024-01-25T10:59:27;13.10;;;3.80;;
34920;SDS011;21128;50.016;20.002;2024-01-25T11:01:54;17.40;;;3.90;;
34920;SDS011;21128;50.016;20.002;2024-01-25T11:04:21;17.50;;;4.90;;
34920;SDS011;21128;50.016;20.002;2024-01-25T11:06:48;13.80;;;4.00;;
34920;SDS011;21128;50.016;20.002;2024-01-25T11:09:19;17.80;;;3.80;;
34920;SDS011;21128;50.016;20.002;2024-01-25T11:11:48;22.80;;;4.20;;
34920;SDS011;21128;50.016;20.002;2024-01-25T11:14:15;14.30;;;4.00;;
34920;SDS011;21128;50.016;20.002;2024-01-25T11:16:43;15.10;;;3.10;;
34920;SDS011;21128;50.016;20.002;2024-01-25T11:19:17;22.10;;;4.20;;
34920;SDS011;21128;50.016;20.002;2024-01-25T11:21:46;12.20;;;3.70;;
34920;SDS011;21128;50.016;20.002;2024-01-25T11:24:14;16.20;;;3.90;;
34920;SDS011;21128;50.016;20.002;2024-01-25T11:26:43;11.60;;;3.50;;
34920;SDS011;21128;50.016;20.002;2024-01-25T11:29:14;16.80;;;3.70;;
34920;SDS011;21128;50.016;20.002;2024-01-25T11:31:45;28.90;;;4.20;;
34920;SDS011;21128;50.016;20.002;2024-01-25T11:34:13;19.50;;;4.40;;
34920;SDS011;21128;50.016;20.002;2024-01-25T11:36:45;15.80;;;3.40;;
34920;SDS011;21128;50.016;20.002;2024-01-25T11:39:12;21.40;;;5.00;;
34920;SDS011;21128;50.016;20.002;2024-01-25T11:41:42;16.30;;;4.30;;
34920;SDS011;21128;50.016;20.002;2024-01-25T11:44:10;12.40;;;4.00;;
34920;SDS011;21128;50.016;20.002;2024-01-25T11:46:38;14.20;;;3.80;;
34920;SDS011;21128;50.016;20.002;2024-01-25T11:49:05;15.40;;;4.20;;
34920;SDS011;21128;50.016;20.002;2024-01-25T11:51:33;15.90;;;3.90;;
34920;SDS011;21128;50.016;20.002;2024-01-25T11:54:00;19.80;;;4.20;;
34920;SDS011;21128;50.016;20.002;2024-01-25T11:56:28;18.30;;;3.80;;
34920;SDS011;21128;50.016;20.002;2024-01-25T11:58:57;14.80;;;3.80;;
34920;SDS011;21128;50.016;20.002;2024-01-25T12:01:25;11.40;;;3.30;;
34920;SDS011;21128;50.016;20.002;2024-01-25T12:03:53;15.80;;;3.80;;
34920;SDS011;21128;50.016;20.002;2024-01-25T12:06:20;18.50;;;3.90;;
34920;SDS011;21128;50.016;20.002;2024-01-25T12:08:47;11.10;;;3.80;;
34920;SDS011;21128;50.016;20.002;2024-01-25T12:11:18;16.90;;;3.90;;
34920;SDS011;21128;50.016;20.002;2024-01-25T12:13:45;18.10;;;3.90;;
34920;SDS011;21128;50.016;20.002;2024-01-25T12:16:12;23.00;;;4.30;;
34920;SDS011;21128;50.016;20.002;2024-01-25T12:18:40;13.50;;;3.90;;
34920;SDS011;21128;50.016;20.002;2024-01-25T12:21:09;13.10;;;3.70;;
34920;SDS011;21128;50.016;20.002;2024-01-25T12:23:39;23.10;;;4.50;;
34920;SDS011;21128;50.016;20.002;2024-01-25T12:26:08;19.90;;;3.60;;
34920;SDS011;21128;50.016;20.002;2024-01-25T12:28:36;17.20;;;3.90;;
34920;SDS011;21128;50.016;20.002;2024-01-25T12:31:04;21.60;;;4.00;;
34920;SDS011;21128;50.016;20.002;2024-01-25T12:33:32;15.50;;;3.50;;
34920;SDS011;21128;50.016;20.002;2024-01-25T12:36:03;18.60;;;3.90;;
34920;SDS011;21128;50.016;20.002;2024-01-25T12:38:30;16.80;;;4.50;;
34920;SDS011;21128;50.016;20.002;2024-01-25T12:41:00;19.80;;;5.40;;
34920;SDS011;21128;50.016;20.002;2024-01-25T12:43:28;17.10;;;3.90;;
34920;SDS011;21128;50.016;20.002;2024-01-25T12:45:56;13.00;;;3.90;;
34920;SDS011;21128;50.016;20.002;2024-01-25T12:48:22;12.00;;;4.30;;
34920;SDS011;21128;50.016;20.002;2024-01-25T12:50:49;15.80;;;4.00;;
34920;SDS011;21128;50.016;20.002;2024-01-25T12:53:16;15.70;;;3.90;;
34920;SDS011;21128;50.016;20.002;2024-01-25T12:55:43;21.80;;;4.90;;
34920;SDS011;21128;50.016;20.002;2024-01-25T12:58:09;15.40;;;4.30;;
34920;SDS011;21128;50.016;20.002;2024-01-25T13:00:36;15.60;;;4.40;;
34920;SDS011;21128;50.016;20.002;2024-01-25T13:03:03;15.40;;;3.60;;
34920;SDS011;21128;50.016;20.002;2024-01-25T13:05:30;21.60;;;4.20;;
34920;SDS011;21128;50.016;20.002;2024-01-25T13:08:01;12.90;;;3.40;;
34920;SDS011;21128;50.016;20.002;2024-01-25T13:10:29;21.90;;;3.60;;
34920;SDS011;21128;50.016;20.002;2024-01-25T13:12:56;15.90;;;3.70;;
34920;SDS011;21128;50.016;20.002;2024-01-25T13:15:24;18.20;;;2.90;;
34920;SDS011;21128;50.016;20.002;2024-01-25T13:17:51;15.40;;;3.80;;
34920;SDS011;21128;50.016;20.002;2024-01-25T13:20:17;11.20;;;3.50;;
34920;SDS011;21128;50.016;20.002;2024-01-25T13:22:45;14.00;;;3.50;;
34920;SDS011;21128;50.016;20.002;2024-01-25T13:25:12;15.30;;;3.90;;
34920;SDS011;21128;50.016;20.002;2024-01-25T13:27:39;12.60;;;3.30;;
34920;SDS011;21128;50.016;20.002;2024-01-25T13:30:06;16.70;;;3.70;;
34920;SDS011;21128;50.016;20.002;2024-01-25T13:32:34;11.00;;;3.70;;
34920;SDS011;21128;50.016;20.002;2024-01-25T13:35:00;12.70;;;3.40;;
34920;SDS011;21128;50.016;20.002;2024-01-25T13:37:27;13.30;;;3.80;;
34920;SDS011;21128;50.016;20.002;2024-01-25T13:39:54;15.10;;;4.10;;
34920;SDS011;21128;50.016;20.002;2024-01-25T13:42:20;11.00;;;4.00;;
34920;SDS011;21128;50.016;20.002;2024-01-25T13:44:47;12.10;;;3.30;;
34920;SDS011;21128;50.016;20.002;2024-01-25T13:47:14;14.00;;;3.60;;
34920;SDS011;21128;50.016;20.002;2024-01-25T13:49:41;15.70;;;3.80;;
34920;SDS011;21128;50.016;20.002;2024-01-25T13:52:07;19.00;;;3.80;;
34920;SDS011;21128;50.016;20.002;2024-01-25T13:54:44;16.30;;;4.00;;
34920;SDS011;21128;50.016;20.002;2024-01-25T13:57:11;11.40;;;3.90;;
34920;SDS011;21128;50.016;20.002;2024-01-25T13:59:37;12.30;;;3.80;;
34920;SDS011;21128;50.016;20.002;2024-01-25T14:02:04;14.40;;;3.90;;
34920;SDS011;21128;50.016;20.002;2024-01-25T14:04:31;10.60;;;3.20;;
34920;SDS011;21128;50.016;20.002;2024-01-25T14:06:58;20.10;;;3.70;;
34920;SDS011;21128;50.016;20.002;2024-01-25T14:09:27;13.80;;;3.80;;
34920;SDS011;21128;50.016;20.002;2024-01-25T14:11:55;16.80;;;3.40;;
34920;SDS011;21128;50.016;20.002;2024-01-25T14:14:22;15.50;;;3.40;;
34920;SDS011;21128;50.016;20.002;2024-01-25T14:16:49;14.60;;;3.50;;
34920;SDS011;21128;50.016;20.002;2024-01-25T14:19:16;15.10;;;4.60;;
34920;SDS011;21128;50.016;20.002;2024-01-25T14:21:43;17.50;;;3.60;;
34920;SDS011;21128;50.016;20.002;2024-01-25T14:24:10;17.30;;;4.60;;
34920;SDS011;21128;50.016;20.002;2024-01-25T14:26:37;11.60;;;4.00;;